createdAt,value
2023-01-28T00:02:05.003Z,2.30
2023-01-28T00:04:34.405Z,2.30
2023-01-28T00:07:02.618Z,2.20
2023-01-28T00:09:30.586Z,2.20
2023-01-28T00:11:59.140Z,2.20
2023-01-28T00:14:27.064Z,2.20
2023-01-28T00:16:55.071Z,2.20
2023-01-28T00:19:23.431Z,2.10
2023-01-28T00:21:52.839Z,2.20
2023-01-28T00:24:20.893Z,2.20
2023-01-28T00:26:49.810Z,2.20
2023-01-28T00:29:17.932Z,2.20
2023-01-28T00:31:46.104Z,2.20
2023-01-28T00:34:14.105Z,2.20
2023-01-28T00:36:42.965Z,2.20
2023-01-28T00:39:15.483Z,2.20
2023-01-28T00:41:43.695Z,2.20
2023-01-28T00:44:11.742Z,2.20
2023-01-28T00:46:41.867Z,2.20
2023-01-28T00:49:09.896Z,2.20
2023-01-28T00:51:38.401Z,2.20
2023-01-28T00:54:06.885Z,2.20
2023-01-28T00:56:36.866Z,2.30
2023-01-28T00:59:06.896Z,2.30
2023-01-28T01:01:35.200Z,2.30
2023-01-28T01:04:03.573Z,2.20
2023-01-28T01:06:33.921Z,2.20
2023-01-28T01:09:02.332Z,2.10
2023-01-28T01:11:30.356Z,2.10
2023-01-28T01:14:03.926Z,2.10
2023-01-28T01:16:36.053Z,2.00
2023-01-28T01:19:04.388Z,2.00
2023-01-28T01:21:32.574Z,2.00
2023-01-28T01:24:00.696Z,2.00
2023-01-28T01:26:28.714Z,2.00
2023-01-28T01:29:00.041Z,2.00
2023-01-28T01:31:28.199Z,2.00
2023-01-28T01:33:56.163Z,2.00
2023-01-28T01:36:24.240Z,2.00
2023-01-28T01:38:55.528Z,2.00
2023-01-28T01:41:28.200Z,2.10
2023-01-28T01:43:57.919Z,2.10
2023-01-28T01:46:34.619Z,2.00
2023-01-28T01:49:12.696Z,2.00
2023-01-28T01:51:41.309Z,2.00
2023-01-28T01:54:09.737Z,2.00
2023-01-28T01:56:43.125Z,2.00
2023-01-28T01:59:13.714Z,2.00
2023-01-28T02:01:45.633Z,2.00
2023-01-28T02:04:20.034Z,2.00
2023-01-28T02:06:48.886Z,2.00
2023-01-28T02:09:29.405Z,2.00
2023-01-28T02:12:01.298Z,2.00
2023-01-28T02:14:33.126Z,2.00
2023-01-28T02:17:03.636Z,2.00
2023-01-28T02:19:38.838Z,2.10
2023-01-28T02:22:19.795Z,2.10
2023-01-28T02:25:14.786Z,2.00
2023-01-28T02:28:10.295Z,2.10
2023-01-28T02:30:42.956Z,2.10
2023-01-28T02:33:15.809Z,2.10
2023-01-28T02:35:49.304Z,2.10
2023-01-28T02:38:23.626Z,2.10
2023-01-28T02:41:05.672Z,2.10
2023-01-28T02:43:37.962Z,2.10
2023-01-28T02:46:36.460Z,2.10
2023-01-28T02:49:09.377Z,2.10
2023-01-28T02:51:50.947Z,2.10
2023-01-28T02:54:26.731Z,2.10
2023-01-28T02:57:03.670Z,2.10
2023-01-28T02:59:41.686Z,2.10
2023-01-28T03:02:16.607Z,2.10
2023-01-28T03:04:50.580Z,2.00
2023-01-28T03:07:20.972Z,2.00
2023-01-28T03:09:51.201Z,2.00
2023-01-28T03:12:40.064Z,1.90
2023-01-28T03:15:32.479Z,1.90
2023-01-28T03:18:22.070Z,1.90
2023-01-28T03:21:13.308Z,1.90
2023-01-28T03:24:06.261Z,1.90
2023-01-28T03:26:56.944Z,1.90
2023-01-28T03:29:43.872Z,1.90
2023-01-28T03:32:33.989Z,1.90
2023-01-28T03:35:19.803Z,1.90
2023-01-28T03:37:48.357Z,1.90
2023-01-28T03:40:22.326Z,1.90
2023-01-28T03:42:52.224Z,1.90
2023-01-28T03:45:34.872Z,2.00
2023-01-28T03:48:07.171Z,2.00
2023-01-28T03:50:35.344Z,2.00
2023-01-28T03:53:16.357Z,2.00
2023-01-28T03:55:53.894Z,2.00
2023-01-28T03:58:23.041Z,2.00
2023-01-28T04:00:52.247Z,2.00
2023-01-28T04:03:22.702Z,2.00
2023-01-28T04:06:03.751Z,2.00
2023-01-28T04:08:59.609Z,2.00
2023-01-28T04:11:27.834Z,2.00
2023-01-28T04:13:57.432Z,2.00
2023-01-28T04:16:27.036Z,2.10
2023-01-28T04:18:57.876Z,2.10
2023-01-28T04:21:26.336Z,2.00
2023-01-28T04:23:54.490Z,2.00
2023-01-28T04:26:22.494Z,2.00
2023-01-28T04:28:50.785Z,2.00
2023-01-28T04:31:19.396Z,2.00
2023-01-28T04:34:07.278Z,2.00
2023-01-28T04:36:45.427Z,2.00
2023-01-28T04:39:27.575Z,2.00
2023-01-28T04:42:11.192Z,2.00
2023-01-28T04:44:57.678Z,2.00
2023-01-28T04:47:41.602Z,2.00
2023-01-28T04:50:35.588Z,2.00
2023-01-28T04:53:21.598Z,2.00
2023-01-28T04:55:59.216Z,2.00
2023-01-28T04:58:30.620Z,2.00
2023-01-28T05:01:03.665Z,2.00
2023-01-28T05:03:34.115Z,2.00
2023-01-28T05:06:05.525Z,2.00
2023-01-28T05:08:46.322Z,2.00
2023-01-28T05:11:15.913Z,2.00
2023-01-28T05:13:45.586Z,2.00
2023-01-28T05:16:15.178Z,2.00
2023-01-28T05:18:44.837Z,2.00
2023-01-28T05:21:17.583Z,2.00
2023-01-28T05:23:47.639Z,2.00
2023-01-28T05:26:15.980Z,2.00
2023-01-28T05:28:45.096Z,2.00
2023-01-28T05:31:13.355Z,2.00
2023-01-28T05:33:41.347Z,2.00
2023-01-28T05:36:12.556Z,2.00
2023-01-28T05:38:42.965Z,1.90
2023-01-28T05:41:11.182Z,1.90
2023-01-28T05:43:40.155Z,1.90
2023-01-28T05:46:26.550Z,1.90
2023-01-28T05:49:12.235Z,1.90
2023-01-28T05:52:09.427Z,1.90
2023-01-28T05:54:38.995Z,1.90
2023-01-28T05:57:07.886Z,1.90
2023-01-28T05:59:35.815Z,1.90
2023-01-28T06:02:04.061Z,1.90
2023-01-28T06:04:32.056Z,1.90
2023-01-28T06:07:00.812Z,1.90
2023-01-28T06:09:29.237Z,1.90
2023-01-28T06:11:58.746Z,1.90
2023-01-28T06:14:35.148Z,1.90
2023-01-28T06:17:32.141Z,1.90
2023-01-28T06:20:09.529Z,1.90
2023-01-28T06:22:39.765Z,1.90
2023-01-28T06:25:08.893Z,1.90
2023-01-28T06:27:38.310Z,1.90
2023-01-28T06:30:07.402Z,1.90
2023-01-28T06:32:35.560Z,2.10
2023-01-28T06:35:03.639Z,2.10
2023-01-28T06:37:31.916Z,2.10
2023-01-28T06:40:00.023Z,2.10
2023-01-28T06:42:28.187Z,2.20
2023-01-28T06:44:57.559Z,2.20
2023-01-28T06:47:25.779Z,2.20
2023-01-28T06:49:53.786Z,2.20
2023-01-28T06:52:21.824Z,2.10
2023-01-28T06:54:49.913Z,2.40
2023-01-28T06:57:17.989Z,2.10
2023-01-28T06:59:48.616Z,2.10
2023-01-28T07:02:18.235Z,2.20
2023-01-28T07:04:46.577Z,2.10
2023-01-28T07:07:14.547Z,2.30
2023-01-28T07:09:42.613Z,2.10
2023-01-28T07:12:10.690Z,2.10
2023-01-28T07:14:38.679Z,2.10
2023-01-28T07:17:06.732Z,2.10
2023-01-28T07:19:36.462Z,2.10
2023-01-28T07:22:04.689Z,2.10
2023-01-28T07:24:33.126Z,2.10
2023-01-28T07:27:01.401Z,2.10
2023-01-28T07:29:29.435Z,2.10
2023-01-28T07:31:57.464Z,2.10
2023-01-28T07:34:25.920Z,2.10
2023-01-28T07:36:57.478Z,2.10
2023-01-28T07:39:26.242Z,2.10
2023-01-28T07:41:54.295Z,2.10
2023-01-28T07:44:42.551Z,2.10
2023-01-28T07:47:11.628Z,2.10
2023-01-28T07:49:39.814Z,2.10
2023-01-28T07:52:09.782Z,2.20
2023-01-28T07:54:38.184Z,2.20
2023-01-28T07:57:10.689Z,2.30
2023-01-28T07:59:38.899Z,2.20
2023-01-28T08:02:07.327Z,2.20
2023-01-28T08:04:35.469Z,2.20
2023-01-28T08:07:03.500Z,2.30
2023-01-28T08:09:34.227Z,2.30
2023-01-28T08:12:03.367Z,2.30
2023-01-28T08:14:31.421Z,2.30
2023-01-28T08:16:59.497Z,2.40
2023-01-28T08:19:27.965Z,2.40
2023-01-28T08:21:55.973Z,2.50
2023-01-28T08:24:24.085Z,2.50
2023-01-28T08:26:53.791Z,2.50
2023-01-28T08:29:21.919Z,2.60
2023-01-28T08:31:50.124Z,2.60
2023-01-28T08:34:18.215Z,2.60
2023-01-28T08:36:46.251Z,2.60
2023-01-28T08:39:14.363Z,2.60
2023-01-28T08:41:42.583Z,2.60
2023-01-28T08:44:11.966Z,2.60
2023-01-28T08:46:40.003Z,2.60
2023-01-28T08:49:08.133Z,2.60
2023-01-28T08:51:36.158Z,2.60
2023-01-28T08:54:04.468Z,2.60
2023-01-28T08:56:32.920Z,2.60
2023-01-28T08:59:00.967Z,2.60
2023-01-28T09:01:30.341Z,2.90
2023-01-28T09:03:58.532Z,2.70
2023-01-28T09:06:26.541Z,2.70
2023-01-28T09:08:57.374Z,2.70
2023-01-28T09:11:25.423Z,2.80
2023-01-28T09:13:53.434Z,2.80
2023-01-28T09:16:22.213Z,2.80
2023-01-28T09:18:52.064Z,2.80
2023-01-28T09:21:20.055Z,2.90
2023-01-28T09:23:48.282Z,2.90
2023-01-28T09:26:16.478Z,3.00
2023-01-28T09:28:44.503Z,3.00
2023-01-28T09:31:13.743Z,2.90
2023-01-28T09:33:42.900Z,2.90
2023-01-28T09:36:13.014Z,2.90
2023-01-28T09:38:41.120Z,2.90
2023-01-28T09:41:24.159Z,2.90
2023-01-28T09:44:06.439Z,2.90
2023-01-28T09:46:36.807Z,3.00
2023-01-28T09:49:13.176Z,3.00
2023-01-28T09:51:46.102Z,3.00
2023-01-28T09:54:25.394Z,2.90
2023-01-28T09:57:00.357Z,2.90
2023-01-28T09:59:29.581Z,3.00
2023-01-28T10:02:02.202Z,3.00
2023-01-28T10:04:43.618Z,2.90
2023-01-28T10:07:30.697Z,2.90
2023-01-28T10:10:07.531Z,2.90
2023-01-28T10:12:52.174Z,2.80
2023-01-28T10:15:48.598Z,2.80
2023-01-28T10:18:18.345Z,2.80
2023-01-28T10:20:50.836Z,2.80
2023-01-28T10:23:27.809Z,2.90
2023-01-28T10:26:00.796Z,2.80
2023-01-28T10:28:30.697Z,2.80
2023-01-28T10:30:58.800Z,2.80
2023-01-28T10:33:32.703Z,3.60
2023-01-28T10:36:00.749Z,2.80
2023-01-28T10:38:32.053Z,3.30
2023-01-28T10:41:02.750Z,3.60
2023-01-28T10:43:34.492Z,2.90
2023-01-28T10:46:06.665Z,2.90
2023-01-28T10:48:38.628Z,2.90
2023-01-28T10:51:07.717Z,2.90
2023-01-28T10:53:38.375Z,2.90
2023-01-28T10:56:09.722Z,2.90
2023-01-28T10:58:48.736Z,2.80
2023-01-28T11:01:16.872Z,2.70
2023-01-28T11:03:56.263Z,2.70
2023-01-28T11:06:29.474Z,2.70
2023-01-28T11:09:01.251Z,2.70
2023-01-28T11:11:31.471Z,2.80
2023-01-28T11:14:01.226Z,2.80
2023-01-28T11:16:29.306Z,2.90
2023-01-28T11:19:04.139Z,3.00
2023-01-28T11:21:34.237Z,3.10
2023-01-28T11:24:06.179Z,3.10
2023-01-28T11:26:37.387Z,3.20
2023-01-28T11:29:06.262Z,3.20
2023-01-28T11:31:42.895Z,3.30
2023-01-28T11:34:17.683Z,3.30
2023-01-28T11:36:52.232Z,3.30
2023-01-28T11:39:25.947Z,3.30
2023-01-28T11:41:54.681Z,3.40
2023-01-28T11:44:25.297Z,3.50
2023-01-28T11:47:25.116Z,3.50
2023-01-28T11:50:17.022Z,3.50
2023-01-28T11:53:07.139Z,3.40
2023-01-28T11:55:48.719Z,3.40
2023-01-28T11:58:24.115Z,3.40
2023-01-28T12:01:03.533Z,3.50
2023-01-28T12:03:43.686Z,3.40
2023-01-28T12:06:29.557Z,3.40
2023-01-28T12:09:07.817Z,3.40
2023-01-28T12:12:05.210Z,3.50
2023-01-28T12:14:43.253Z,3.50
2023-01-28T12:17:26.325Z,3.40
2023-01-28T12:20:02.910Z,3.40
2023-01-28T12:22:58.585Z,3.50
2023-01-28T12:25:39.271Z,3.40
2023-01-28T12:28:18.215Z,3.40
2023-01-28T12:31:03.029Z,3.40
2023-01-28T12:33:53.326Z,3.50
2023-01-28T12:36:33.256Z,3.50
2023-01-28T12:39:14.024Z,3.60
2023-01-28T12:41:48.497Z,3.60
2023-01-28T12:44:24.757Z,3.60
2023-01-28T12:46:56.657Z,3.60
2023-01-28T12:49:31.558Z,3.60
2023-01-28T12:52:05.723Z,3.60
2023-01-28T12:54:40.300Z,3.60
2023-01-28T12:57:13.276Z,3.60
2023-01-28T12:59:50.474Z,3.50
2023-01-28T13:02:26.212Z,3.60
2023-01-28T13:05:01.464Z,3.40
2023-01-28T13:07:36.363Z,3.30
2023-01-28T13:10:08.194Z,3.30
2023-01-28T13:12:37.132Z,3.30
2023-01-28T13:15:12.786Z,3.30
2023-01-28T13:17:42.046Z,3.20
2023-01-28T13:20:17.990Z,3.20
2023-01-28T13:22:46.543Z,3.10
2023-01-28T13:25:21.695Z,3.10
2023-01-28T13:27:58.448Z,3.00
2023-01-28T13:30:29.804Z,2.90
2023-01-28T13:32:59.872Z,2.90
2023-01-28T13:35:37.478Z,2.90
2023-01-28T13:38:11.470Z,2.90
2023-01-28T13:40:41.604Z,2.90
2023-01-28T13:43:38.017Z,2.90
2023-01-28T13:46:10.404Z,2.90
2023-01-28T13:48:44.024Z,2.80
2023-01-28T13:51:20.557Z,2.90
2023-01-28T13:53:57.001Z,2.80
2023-01-28T13:56:29.497Z,2.80
2023-01-28T13:59:24.388Z,2.70
2023-01-28T14:02:34.912Z,2.70
2023-01-28T14:05:32.860Z,2.60
2023-01-28T14:08:36.825Z,2.60
2023-01-28T14:11:22.048Z,2.60
2023-01-28T14:14:23.722Z,2.70
2023-01-28T14:16:54.998Z,2.60
2023-01-28T14:19:30.683Z,2.70
2023-01-28T14:21:58.891Z,2.80
2023-01-28T14:24:28.136Z,2.80
2023-01-28T14:27:02.817Z,2.80
2023-01-28T14:29:45.020Z,2.80
2023-01-28T14:32:16.754Z,2.90
2023-01-28T14:34:47.739Z,2.90
2023-01-28T14:37:18.826Z,2.80
2023-01-28T14:39:49.960Z,2.80
2023-01-28T14:42:23.762Z,2.80
2023-01-28T14:45:02.583Z,2.70
2023-01-28T14:47:58.576Z,2.70
2023-01-28T14:50:38.732Z,2.60
2023-01-28T14:53:31.413Z,2.60
2023-01-28T14:56:08.676Z,2.60
2023-01-28T14:58:42.829Z,2.50
2023-01-28T15:01:22.196Z,2.40
2023-01-28T15:03:50.274Z,2.40
2023-01-28T15:06:24.060Z,2.40
2023-01-28T15:08:52.806Z,2.40
2023-01-28T15:11:24.467Z,2.40
2023-01-28T15:13:57.715Z,2.30
2023-01-28T15:16:28.982Z,2.30
2023-01-28T15:18:58.430Z,2.30
2023-01-28T15:21:30.009Z,2.30
2023-01-28T15:23:59.813Z,2.40
2023-01-28T15:26:29.968Z,2.30
2023-01-28T15:28:58.365Z,2.30
2023-01-28T15:31:28.770Z,2.50
2023-01-28T15:33:59.279Z,2.20
2023-01-28T15:36:29.606Z,2.10
2023-01-28T15:38:58.829Z,2.10
2023-01-28T15:41:30.992Z,2.00
2023-01-28T15:43:59.087Z,2.10
2023-01-28T15:46:27.383Z,2.10
2023-01-28T15:49:00.511Z,2.10
2023-01-28T15:51:32.033Z,2.10
2023-01-28T15:54:04.979Z,2.10
2023-01-28T15:56:33.209Z,2.10
2023-01-28T15:59:11.718Z,2.00
2023-01-28T16:01:39.826Z,2.00
2023-01-28T16:04:22.369Z,2.00
2023-01-28T16:06:52.190Z,1.90
2023-01-28T16:09:25.737Z,1.90
2023-01-28T16:11:54.316Z,1.90
2023-01-28T16:14:29.600Z,1.90
2023-01-28T16:16:58.672Z,1.90
2023-01-28T16:19:37.741Z,1.90
2023-01-28T16:22:08.725Z,1.90
2023-01-28T16:24:37.245Z,1.90
2023-01-28T16:27:06.909Z,1.90
2023-01-28T16:29:36.554Z,1.90
2023-01-28T16:32:04.651Z,1.90
2023-01-28T16:34:32.669Z,1.90
2023-01-28T16:37:01.631Z,2.00
2023-01-28T16:39:31.507Z,2.00
2023-01-28T16:42:00.111Z,2.00
2023-01-28T16:44:28.359Z,2.00
2023-01-28T16:46:56.430Z,2.00
2023-01-28T16:49:24.669Z,2.00
2023-01-28T16:51:53.578Z,2.00
2023-01-28T16:54:21.624Z,1.90
2023-01-28T16:56:51.578Z,1.90
2023-01-28T16:59:19.676Z,1.90
2023-01-28T17:01:48.027Z,1.90
2023-01-28T17:04:16.301Z,1.90
2023-01-28T17:06:45.609Z,1.90
2023-01-28T17:09:14.914Z,1.90
2023-01-28T17:11:43.259Z,1.90
2023-01-28T17:14:12.915Z,1.90
2023-01-28T17:16:41.099Z,1.90
2023-01-28T17:19:09.288Z,1.90
2023-01-28T17:21:37.308Z,1.90
2023-01-28T17:24:06.469Z,1.80
2023-01-28T17:26:35.377Z,1.80
2023-01-28T17:29:03.983Z,1.80
2023-01-28T17:31:33.599Z,1.80
2023-01-28T17:34:02.757Z,1.80
2023-01-28T17:36:30.763Z,1.80
2023-01-28T17:38:58.795Z,1.80
2023-01-28T17:41:26.847Z,1.80
2023-01-28T17:43:56.237Z,1.80
2023-01-28T17:46:26.481Z,1.80
2023-01-28T17:48:55.870Z,1.80
2023-01-28T17:51:24.306Z,1.80
2023-01-28T17:53:53.941Z,1.80
2023-01-28T17:56:24.107Z,1.70
2023-01-28T17:58:52.811Z,1.70
2023-01-28T18:01:21.716Z,1.70
2023-01-28T18:03:49.817Z,1.70
2023-01-28T18:06:19.560Z,1.80
2023-01-28T18:08:47.637Z,1.80
2023-01-28T18:11:17.222Z,1.80
2023-01-28T18:13:45.831Z,1.80
2023-01-28T18:16:16.025Z,1.80
2023-01-28T18:18:44.067Z,1.80
2023-01-28T18:21:21.996Z,1.80
2023-01-28T18:23:52.303Z,1.80
2023-01-28T18:26:20.359Z,1.80
2023-01-28T18:28:48.415Z,1.80
2023-01-28T18:31:17.542Z,1.70
2023-01-28T18:33:45.629Z,1.70
2023-01-28T18:36:13.771Z,1.70
2023-01-28T18:38:43.316Z,1.70
2023-01-28T18:41:11.389Z,1.70
2023-01-28T18:43:39.606Z,1.70
2023-01-28T18:46:12.568Z,1.70
2023-01-28T18:48:40.705Z,1.70
2023-01-28T18:51:17.521Z,1.70
2023-01-28T18:53:59.131Z,1.70
2023-01-28T18:56:27.433Z,1.70
2023-01-28T18:58:59.209Z,1.70
2023-01-28T19:01:27.300Z,1.70
2023-01-28T19:03:55.947Z,1.70
2023-01-28T19:06:24.808Z,1.60
2023-01-28T19:08:56.931Z,1.60
2023-01-28T19:11:28.064Z,1.50
2023-01-28T19:13:56.991Z,1.50
2023-01-28T19:16:25.656Z,1.50
2023-01-28T19:18:54.321Z,1.40
2023-01-28T19:21:23.068Z,1.40
2023-01-28T19:23:56.388Z,1.50
2023-01-28T19:26:26.591Z,1.40
2023-01-28T19:28:55.091Z,1.40
2023-01-28T19:31:25.183Z,1.50
2023-01-28T19:33:56.461Z,1.50
2023-01-28T19:36:25.953Z,1.50
2023-01-28T19:38:54.200Z,1.50
2023-01-28T19:41:22.246Z,1.50
2023-01-28T19:43:51.571Z,1.50
2023-01-28T19:46:19.645Z,1.50
2023-01-28T19:48:47.726Z,1.40
2023-01-28T19:51:16.990Z,1.40
2023-01-28T19:53:46.149Z,1.30
2023-01-28T19:56:15.617Z,1.30
2023-01-28T19:58:45.139Z,1.30
2023-01-28T20:01:15.992Z,1.20
2023-01-28T20:03:44.752Z,1.30
2023-01-28T20:06:14.297Z,1.10
2023-01-28T20:08:42.329Z,1.00
2023-01-28T20:11:12.855Z,1.00
2023-01-28T20:13:42.307Z,1.00
2023-01-28T20:16:12.960Z,0.90
2023-01-28T20:18:42.355Z,1.00
2023-01-28T20:21:10.337Z,1.00
2023-01-28T20:23:38.345Z,1.00
2023-01-28T20:26:06.451Z,1.00
2023-01-28T20:28:34.478Z,1.00
2023-01-28T20:31:05.765Z,1.10
2023-01-28T20:33:34.214Z,1.10
2023-01-28T20:36:05.714Z,1.10
2023-01-28T20:38:36.365Z,1.00
2023-01-28T20:41:08.137Z,1.00
2023-01-28T20:43:36.616Z,1.10
2023-01-28T20:46:05.807Z,1.10
2023-01-28T20:48:34.529Z,1.10
2023-01-28T20:51:08.131Z,1.10
2023-01-28T20:53:36.398Z,1.20
2023-01-28T20:56:05.160Z,1.10
2023-01-28T20:58:33.390Z,1.10
2023-01-28T21:01:01.824Z,1.10
2023-01-28T21:03:29.927Z,1.10
2023-01-28T21:05:57.940Z,1.00
2023-01-28T21:08:27.501Z,1.00
2023-01-28T21:10:56.349Z,1.00
2023-01-28T21:13:24.262Z,1.00
2023-01-28T21:15:54.156Z,1.00
2023-01-28T21:18:22.859Z,1.00
2023-01-28T21:20:51.429Z,1.00
2023-01-28T21:23:19.413Z,1.00
2023-01-28T21:25:50.122Z,1.00
2023-01-28T21:28:18.788Z,1.00
2023-01-28T21:30:47.435Z,1.00
2023-01-28T21:33:15.418Z,1.00
2023-01-28T21:35:44.371Z,1.00
2023-01-28T21:38:12.956Z,1.00
2023-01-28T21:40:40.932Z,1.00
2023-01-28T21:43:12.558Z,1.00
2023-01-28T21:45:41.545Z,0.90
2023-01-28T21:48:09.602Z,0.90
2023-01-28T21:50:57.518Z,0.90
2023-01-28T21:53:25.451Z,0.90
2023-01-28T21:55:53.507Z,0.90
2023-01-28T21:58:40.162Z,0.90
2023-01-28T22:01:11.485Z,0.90
2023-01-28T22:03:39.500Z,0.90
2023-01-28T22:06:08.038Z,0.80
2023-01-28T22:08:36.002Z,0.90
2023-01-28T22:11:04.650Z,0.90
2023-01-28T22:13:34.287Z,0.90
2023-01-28T22:16:02.594Z,0.90
2023-01-28T22:18:30.789Z,0.90
2023-01-28T22:20:59.701Z,0.90
2023-01-28T22:23:28.027Z,0.90
2023-01-28T22:25:57.025Z,0.90
2023-01-28T22:28:25.955Z,0.80
2023-01-28T22:30:55.928Z,0.80
2023-01-28T22:33:23.940Z,0.80
2023-01-28T22:35:51.913Z,0.80
2023-01-28T22:38:19.873Z,0.80
2023-01-28T22:40:48.087Z,0.80
2023-01-28T22:43:16.146Z,0.70
2023-01-28T22:45:44.129Z,0.70
2023-01-28T22:48:13.433Z,0.60
2023-01-28T22:50:41.364Z,0.50
2023-01-28T22:53:09.546Z,0.40
2023-01-28T22:55:37.482Z,0.40
2023-01-28T22:58:07.222Z,0.30
2023-01-28T23:00:35.172Z,0.30
2023-01-28T23:03:03.270Z,0.20
2023-01-28T23:05:32.668Z,0.20
2023-01-28T23:08:10.193Z,0.10
2023-01-28T23:10:38.933Z,0.10
2023-01-28T23:13:07.071Z,0.10
2023-01-28T23:15:52.647Z,0.10
2023-01-28T23:18:43.644Z,0.00
2023-01-28T23:21:37.065Z,0.00
2023-01-28T23:24:20.768Z,0.00
2023-01-28T23:26:52.271Z,0.00
2023-01-28T23:29:23.699Z,0.00
2023-01-28T23:31:53.980Z,0.00
2023-01-28T23:34:23.486Z,0.00
2023-01-28T23:36:52.919Z,0.00
2023-01-28T23:39:20.841Z,0.10
2023-01-28T23:41:48.792Z,0.00
2023-01-28T23:44:18.384Z,0.00
2023-01-28T23:46:47.718Z,0.00
2023-01-28T23:49:15.969Z,0.00
2023-01-28T23:51:44.145Z,0.00
2023-01-28T23:54:14.683Z,0.00
2023-01-28T23:56:42.581Z,0.00
2023-01-28T23:59:10.581Z,0.00
